Time;durP1;ratioP1;P1;durP2;ratioP2;P2;SDS_P1;SDS_P2;PMS_P1;PMS_P2;Temp;Humidity;BMP_temperature;BMP_pressure;BME280_temperature;BME280_humidity;BME280_pressure;Samples;Min_cycle;Max_cycle;Signal;HPM_P1;HPM_P2
2022/01/29 00:01:45;;;;;;;13.97;3.80;;;4.40;99.90;;;;;;4983499;28;20203;-70
2022/01/29 00:04:11;;;;;;;12.97;3.87;;;4.40;99.90;;;;;;4976217;28;20242;-72
2022/01/29 00:06:37;;;;;;;11.40;4.53;;;4.40;99.90;;;;;;4985344;28;20652;-72
2022/01/29 00:09:02;;;;;;;10.93;3.43;;;4.30;99.90;;;;;;4984420;28;20188;-70
2022/01/29 00:11:30;;;;;;;11.87;3.43;;;4.30;99.90;;;;;;4982966;28;20191;-71
2022/01/29 00:13:57;;;;;;;9.67;4.00;;;4.20;99.90;;;;;;4984655;28;20204;-71
2022/01/29 00:16:22;;;;;;;12.17;2.77;;;4.20;99.90;;;;;;4984973;28;20652;-68
2022/01/29 00:18:48;;;;;;;16.47;3.70;;;4.10;99.90;;;;;;4983194;28;21025;-70
2022/01/29 00:21:13;;;;;;;20.10;3.27;;;4.20;99.90;;;;;;4984278;28;20208;-68
2022/01/29 00:23:39;;;;;;;16.07;4.33;;;4.30;99.90;;;;;;4983947;28;20335;-71
2022/01/29 00:26:05;;;;;;;10.37;3.70;;;4.30;99.90;;;;;;4983121;28;20195;-70
2022/01/29 00:28:33;;;;;;;11.87;3.13;;;4.30;99.90;;;;;;4973425;28;20201;-71
2022/01/29 00:30:59;;;;;;;8.37;2.77;;;4.30;99.90;;;;;;4986256;28;20185;-70
2022/01/29 00:33:24;;;;;;;12.93;3.53;;;4.30;99.90;;;;;;4979868;28;20201;-71
2022/01/29 00:35:50;;;;;;;14.53;2.90;;;4.30;99.90;;;;;;4984004;28;20703;-71
2022/01/29 00:38:15;;;;;;;12.73;4.37;;;4.30;99.90;;;;;;4983598;28;20227;-70
2022/01/29 00:40:42;;;;;;;13.20;4.07;;;4.40;99.90;;;;;;4988513;28;20262;-68
2022/01/29 00:43:07;;;;;;;19.10;3.93;;;4.30;99.90;;;;;;5001379;28;20674;-69
2022/01/29 00:45:33;;;;;;;14.20;3.53;;;4.30;99.90;;;;;;4987549;28;20192;-69
2022/01/29 00:47:58;;;;;;;11.70;3.30;;;4.40;99.90;;;;;;5035298;28;20204;-70
2022/01/29 00:50:24;;;;;;;15.40;4.27;;;4.40;99.90;;;;;;4993274;28;20192;-71
2022/01/29 00:52:50;;;;;;;12.63;2.90;;;4.40;99.90;;;;;;4985420;28;20205;-70
2022/01/29 00:55:16;;;;;;;15.90;3.07;;;4.50;99.90;;;;;;4993189;28;20559;-70
2022/01/29 00:57:43;;;;;;;9.77;2.73;;;4.40;99.90;;;;;;4992629;28;20556;-71
2022/01/29 01:00:11;;;;;;;17.20;5.90;;;4.50;99.90;;;;;;4991775;28;20197;-69
2022/01/29 01:02:37;;;;;;;19.07;5.57;;;4.40;99.90;;;;;;4994008;28;20231;-71
2022/01/29 01:05:03;;;;;;;14.83;3.37;;;4.40;99.90;;;;;;4994454;28;20735;-70
2022/01/29 01:07:29;;;;;;;14.83;2.93;;;4.50;99.90;;;;;;4988017;28;20254;-70
2022/01/29 01:09:54;;;;;;;14.10;3.37;;;4.50;99.90;;;;;;4988671;28;20284;-70
2022/01/29 01:12:20;;;;;;;14.03;3.33;;;4.50;99.90;;;;;;4984244;28;20299;-70
2022/01/29 01:14:46;;;;;;;15.93;3.27;;;4.50;99.90;;;;;;4992658;28;20235;-70
2022/01/29 01:17:11;;;;;;;17.00;3.50;;;4.50;99.90;;;;;;4974686;28;20500;-69
2022/01/29 01:19:37;;;;;;;11.30;3.00;;;4.40;99.90;;;;;;4979609;28;20249;-70
2022/01/29 01:22:03;;;;;;;16.10;3.53;;;4.40;99.90;;;;;;4993887;28;20211;-69
2022/01/29 01:24:28;;;;;;;14.10;3.70;;;4.40;99.90;;;;;;4996076;28;20209;-71
2022/01/29 01:26:54;;;;;;;16.63;3.17;;;4.60;99.90;;;;;;4984116;28;20578;-70
2022/01/29 01:29:29;;;;;;;8.97;2.80;;;4.60;99.90;;;;;;4981126;28;20208;-71
2022/01/29 01:31:55;;;;;;;8.67;2.70;;;4.60;99.90;;;;;;4965520;28;20295;-69
2022/01/29 01:34:23;;;;;;;14.53;4.10;;;4.70;99.90;;;;;;4979904;28;20284;-71
2022/01/29 01:36:56;;;;;;;13.87;3.17;;;4.60;99.90;;;;;;4983342;28;20244;-71
2022/01/29 01:39:27;;;;;;;13.27;2.87;;;4.60;99.90;;;;;;4981519;28;20235;-70
2022/01/29 01:42:04;;;;;;;11.47;3.60;;;4.50;99.90;;;;;;4979246;28;20237;-71
2022/01/29 01:44:45;;;;;;;12.00;3.13;;;4.60;99.90;;;;;;4982958;28;20697;-70
2022/01/29 01:47:15;;;;;;;11.87;3.20;;;4.60;99.90;;;;;;4981916;28;20218;-69
2022/01/29 01:49:40;;;;;;;18.83;3.33;;;4.60;99.90;;;;;;4986502;28;20277;-68
2022/01/29 01:52:09;;;;;;;15.37;3.50;;;4.60;99.90;;;;;;4980654;28;20524;-70
2022/01/29 01:54:35;;;;;;;11.73;3.70;;;4.50;99.90;;;;;;4981354;28;20216;-70
2022/01/29 01:57:01;;;;;;;15.13;4.47;;;4.60;99.90;;;;;;4984798;28;20747;-70
2022/01/29 01:59:27;;;;;;;16.83;4.30;;;4.60;99.90;;;;;;4977330;28;20316;-70
2022/01/29 02:01:53;;;;;;;22.70;4.10;;;4.60;99.90;;;;;;4973600;28;20200;-71
2022/01/29 02:04:19;;;;;;;17.23;3.43;;;4.60;99.90;;;;;;4990219;28;20200;-71
2022/01/29 02:06:46;;;;;;;14.90;3.60;;;4.50;99.90;;;;;;4982083;28;20189;-69
2022/01/29 02:09:14;;;;;;;8.47;3.57;;;4.50;99.90;;;;;;4984125;28;20335;-71
2022/01/29 02:11:50;;;;;;;13.73;3.10;;;4.60;99.90;;;;;;4986274;28;20188;-70
2022/01/29 02:14:17;;;;;;;18.47;3.23;;;4.50;99.90;;;;;;4975321;28;20192;-65
2022/01/29 02:16:42;;;;;;;15.07;3.67;;;4.50;99.90;;;;;;4979980;28;20189;-67
2022/01/29 02:19:10;;;;;;;12.90;3.83;;;4.50;99.90;;;;;;4975540;28;20718;-64
2022/01/29 02:21:36;;;;;;;14.50;4.37;;;4.50;99.90;;;;;;4977925;28;20189;-65
2022/01/29 02:24:02;;;;;;;9.97;3.57;;;4.40;99.90;;;;;;4978488;28;20212;-65
2022/01/29 02:26:28;;;;;;;13.33;3.53;;;4.30;99.90;;;;;;4978961;28;20539;-66
2022/01/29 02:28:55;;;;;;;17.23;3.47;;;4.30;99.90;;;;;;4979273;28;20245;-70
2022/01/29 02:31:20;;;;;;;12.13;4.00;;;4.40;99.90;;;;;;4976475;28;20185;-67
2022/01/29 02:33:46;;;;;;;14.80;3.77;;;4.30;99.90;;;;;;4980173;28;20669;-67
2022/01/29 02:36:11;;;;;;;11.70;3.87;;;4.30;99.90;;;;;;4980716;28;20200;-65
2022/01/29 02:38:37;;;;;;;14.10;4.30;;;4.30;99.90;;;;;;4979391;28;20205;-63
2022/01/29 02:41:05;;;;;;;14.87;3.93;;;4.20;99.90;;;;;;4988794;28;20373;-65
2022/01/29 02:43:37;;;;;;;13.53;3.73;;;4.20;99.90;;;;;;4984457;28;20227;-66
2022/01/29 02:48:48;;;;;;;10.87;4.20;;;4.30;99.90;;;;;;4994761;28;20200;-66
2022/01/29 02:51:14;;;;;;;11.63;3.77;;;4.20;99.90;;;;;;4986134;28;20260;-66
2022/01/29 02:53:40;;;;;;;16.83;4.43;;;4.20;99.90;;;;;;4987668;28;20307;-65
2022/01/29 02:56:07;;;;;;;16.27;3.80;;;4.10;99.90;;;;;;4995298;28;20181;-67
2022/01/29 02:58:33;;;;;;;14.53;4.43;;;4.10;99.90;;;;;;4990817;28;20208;-67
2022/01/29 03:00:58;;;;;;;17.97;4.63;;;4.00;99.90;;;;;;4994891;28;20632;-64
2022/01/29 03:03:25;;;;;;;14.60;4.57;;;4.00;99.90;;;;;;4989500;28;20212;-66
2022/01/29 03:05:51;;;;;;;12.80;4.37;;;4.00;99.90;;;;;;4986344;28;20295;-66
2022/01/29 03:08:16;;;;;;;13.07;4.90;;;3.90;99.90;;;;;;4983838;28;20574;-67
2022/01/29 03:10:42;;;;;;;12.60;3.53;;;4.00;99.90;;;;;;4996024;28;20757;-66
2022/01/29 03:13:08;;;;;;;14.70;5.00;;;4.00;99.90;;;;;;4992590;28;20191;-65
2022/01/29 03:15:33;;;;;;;11.77;5.00;;;3.90;99.90;;;;;;4991883;28;20748;-66
2022/01/29 03:17:59;;;;;;;10.53;3.30;;;3.90;99.90;;;;;;4995072;28;20251;-67
2022/01/29 03:20:25;;;;;;;15.00;4.90;;;3.80;99.90;;;;;;4986878;28;20232;-66
2022/01/29 03:22:50;;;;;;;10.50;3.77;;;4.00;99.90;;;;;;4986836;28;20796;-65
2022/01/29 03:25:16;;;;;;;13.13;4.27;;;4.00;99.90;;;;;;4991883;28;20196;-66
2022/01/29 03:27:42;;;;;;;12.83;3.87;;;3.90;99.90;;;;;;4996338;28;20670;-66
2022/01/29 03:30:08;;;;;;;16.73;5.20;;;3.80;99.90;;;;;;4987449;28;20609;-66
2022/01/29 03:32:34;;;;;;;14.57;4.63;;;3.90;99.90;;;;;;4977175;28;20203;-66
2022/01/29 03:34:59;;;;;;;22.27;4.33;;;3.90;99.90;;;;;;4985912;28;20555;-66
2022/01/29 03:37:25;;;;;;;11.87;4.30;;;3.70;99.90;;;;;;4990429;28;20246;-65
2022/01/29 03:39:51;;;;;;;5.70;3.47;;;3.80;99.90;;;;;;4989171;28;20544;-65
2022/01/29 03:42:17;;;;;;;10.70;4.80;;;3.70;99.90;;;;;;4991202;28;20259;-66
2022/01/29 03:44:43;;;;;;;14.17;5.00;;;3.70;99.90;;;;;;4996978;28;20219;-65
2022/01/29 03:47:08;;;;;;;16.00;5.73;;;3.70;99.90;;;;;;4994370;28;20227;-66
2022/01/29 03:49:34;;;;;;;16.77;5.03;;;3.70;99.90;;;;;;4989057;28;20715;-66
2022/01/29 03:51:59;;;;;;;14.77;4.70;;;3.70;99.90;;;;;;4993311;28;20199;-66
2022/01/29 03:54:25;;;;;;;22.17;6.63;;;3.70;99.90;;;;;;4993237;28;20188;-67
2022/01/29 03:56:50;;;;;;;15.87;4.90;;;3.70;99.90;;;;;;4988176;28;20291;-67
2022/01/29 03:59:16;;;;;;;17.07;4.73;;;3.70;99.90;;;;;;4998796;28;20270;-67
2022/01/29 04:01:41;;;;;;;18.17;6.20;;;3.80;99.90;;;;;;4996123;28;20208;-67
2022/01/29 04:04:07;;;;;;;19.03;5.70;;;3.60;99.90;;;;;;4976518;28;20212;-67
2022/01/29 04:06:32;;;;;;;18.97;5.53;;;3.60;99.90;;;;;;4998313;28;20220;-67
2022/01/29 04:08:58;;;;;;;13.00;5.40;;;3.70;99.90;;;;;;4993011;28;20657;-65
2022/01/29 04:11:25;;;;;;;17.20;7.03;;;3.70;99.90;;;;;;4985674;28;20282;-65
2022/01/29 04:13:50;;;;;;;11.93;5.60;;;3.60;99.90;;;;;;4997212;28;20208;-66
2022/01/29 04:16:17;;;;;;;14.93;6.93;;;3.60;99.90;;;;;;4994529;28;20196;-66
2022/01/29 04:18:43;;;;;;;18.87;6.63;;;3.70;99.90;;;;;;4986755;28;20227;-66
2022/01/29 04:21:09;;;;;;;18.77;6.97;;;3.70;99.90;;;;;;5001408;28;20287;-66
2022/01/29 04:23:35;;;;;;;17.13;6.53;;;3.70;99.90;;;;;;4992930;28;20228;-66
2022/01/29 04:26:03;;;;;;;19.20;6.23;;;3.80;99.90;;;;;;4993503;28;20193;-66
2022/01/29 04:28:33;;;;;;;15.53;6.67;;;3.90;99.90;;;;;;4988312;28;20207;-67
2022/01/29 04:31:07;;;;;;;10.47;6.00;;;3.90;99.90;;;;;;4994812;28;20205;-66
2022/01/29 04:33:33;;;;;;;18.13;6.93;;;3.80;99.90;;;;;;4984210;28;20630;-66
2022/01/29 04:36:01;;;;;;;20.87;6.97;;;3.90;99.90;;;;;;5001141;28;20375;-66
2022/01/29 04:38:27;;;;;;;16.57;8.90;;;4.00;99.90;;;;;;4992766;28;20205;-65
2022/01/29 04:40:54;;;;;;;17.10;7.43;;;3.90;99.90;;;;;;4985710;28;20225;-66
2022/01/29 04:43:20;;;;;;;13.93;7.30;;;3.90;99.90;;;;;;4996024;28;20227;-65
2022/01/29 04:45:46;;;;;;;14.70;8.33;;;3.90;99.90;;;;;;4988135;28;20305;-65
2022/01/29 04:48:12;;;;;;;21.83;7.83;;;3.90;99.90;;;;;;4983530;28;20199;-65
2022/01/29 04:50:37;;;;;;;17.27;8.07;;;4.00;99.90;;;;;;5000813;28;20895;-65
2022/01/29 04:53:03;;;;;;;22.20;8.20;;;4.00;99.90;;;;;;4983043;28;20287;-65
2022/01/29 04:55:28;;;;;;;18.57;8.37;;;4.00;99.90;;;;;;4997492;28;20629;-65
2022/01/29 04:57:54;;;;;;;20.30;7.70;;;3.90;99.90;;;;;;4990307;28;20208;-66
2022/01/29 05:00:20;;;;;;;15.17;8.30;;;3.90;99.90;;;;;;4986000;28;20604;-66
2022/01/29 05:02:54;;;;;;;16.03;8.07;;;3.90;99.90;;;;;;4993091;28;20211;-65
2022/01/29 05:05:20;;;;;;;13.77;7.50;;;3.90;99.90;;;;;;5042501;28;20200;-66
2022/01/29 05:07:46;;;;;;;11.83;7.67;;;3.90;99.90;;;;;;4991298;28;20192;-66
2022/01/29 05:10:12;;;;;;;12.80;7.63;;;3.90;99.90;;;;;;5001521;28;20566;-65
2022/01/29 05:13:15;;;;;;;15.93;8.70;;;3.80;99.90;;;;;;4979324;28;20198;-66
2022/01/29 05:15:38;;;;;;;14.30;8.63;;;3.80;99.90;;;;;;4983072;28;20223;-66
2022/01/29 05:29:03;;;;;;;17.60;9.27;;;3.80;99.90;;;;;;4999801;28;20204;-67
2022/01/29 05:31:29;;;;;;;19.27;9.47;;;3.80;99.90;;;;;;4994419;28;20198;-67
2022/01/29 05:33:54;;;;;;;12.80;9.23;;;3.80;99.90;;;;;;4996014;28;20573;-67
2022/01/29 05:36:20;;;;;;;20.73;11.00;;;3.80;99.90;;;;;;4997539;28;20219;-67
2022/01/29 05:38:46;;;;;;;19.20;8.47;;;3.90;99.90;;;;;;4995935;28;20196;-67
2022/01/29 05:41:11;;;;;;;20.23;9.40;;;3.80;99.90;;;;;;4983948;28;20228;-67
2022/01/29 05:43:37;;;;;;;16.67;9.10;;;3.80;99.90;;;;;;4987976;28;20898;-67
2022/01/29 05:46:02;;;;;;;21.20;10.00;;;3.80;99.90;;;;;;4993734;28;20196;-68
2022/01/29 05:48:28;;;;;;;15.07;8.07;;;3.80;99.90;;;;;;4987264;28;20215;-68
2022/01/29 05:50:53;;;;;;;16.03;7.87;;;3.80;99.90;;;;;;4992640;28;20199;-68
2022/01/29 05:53:19;;;;;;;14.67;8.80;;;3.80;99.90;;;;;;4988895;28;20687;-69
2022/01/29 05:55:44;;;;;;;21.17;9.03;;;3.80;99.90;;;;;;4995197;28;20196;-68
2022/01/29 05:58:10;;;;;;;21.00;10.27;;;3.80;99.90;;;;;;4986936;28;20209;-67
2022/01/29 06:00:35;;;;;;;22.10;9.27;;;3.80;99.90;;;;;;4990266;28;20291;-68
2022/01/29 06:03:03;;;;;;;15.23;9.77;;;3.80;99.90;;;;;;4993157;28;20224;-68
2022/01/29 06:05:29;;;;;;;17.73;8.60;;;3.90;99.90;;;;;;4992598;28;20204;-70
2022/01/29 06:07:55;;;;;;;20.73;10.57;;;3.90;99.90;;;;;;4991427;28;20229;-69
2022/01/29 06:10:21;;;;;;;15.30;10.30;;;3.80;99.90;;;;;;4989285;28;20197;-68
2022/01/29 06:13:04;;;;;;;20.80;9.50;;;3.80;99.90;;;;;;4990234;28;20212;-68
2022/01/29 06:15:32;;;;;;;19.27;11.10;;;3.90;99.90;;;;;;4965975;28;20195;-68
2022/01/29 06:17:58;;;;;;;17.40;10.53;;;3.80;99.90;;;;;;4982677;28;20206;-67
2022/01/29 06:20:24;;;;;;;14.83;9.77;;;3.80;99.90;;;;;;4994869;28;20684;-68
2022/01/29 06:22:50;;;;;;;27.20;10.60;;;3.80;99.90;;;;;;4993561;28;20226;-68
2022/01/29 06:25:16;;;;;;;19.77;9.83;;;3.80;99.90;;;;;;4995484;28;20185;-68
2022/01/29 06:27:41;;;;;;;24.13;10.53;;;3.80;99.90;;;;;;4992031;28;20200;-69
2022/01/29 06:30:07;;;;;;;17.17;10.00;;;3.80;99.90;;;;;;4995700;28;20559;-67
2022/01/29 06:32:32;;;;;;;17.93;9.20;;;3.90;99.90;;;;;;4988344;28;20204;-69
2022/01/29 06:34:58;;;;;;;21.23;10.93;;;3.80;99.90;;;;;;4986452;28;20204;-68
2022/01/29 06:37:24;;;;;;;28.50;12.00;;;3.90;99.90;;;;;;4987682;28;20233;-68
2022/01/29 06:39:49;;;;;;;21.07;11.93;;;3.90;99.90;;;;;;4991201;28;20343;-68
2022/01/29 06:42:14;;;;;;;18.33;11.30;;;3.80;99.90;;;;;;4988426;28;20243;-69
2022/01/29 06:44:40;;;;;;;14.27;10.10;;;3.80;99.90;;;;;;4993033;28;20216;-68
2022/01/29 06:47:06;;;;;;;16.43;10.67;;;3.80;99.90;;;;;;4991650;28;20223;-68
2022/01/29 06:49:31;;;;;;;21.20;11.30;;;3.70;99.90;;;;;;4996752;28;20584;-69
2022/01/29 06:51:57;;;;;;;16.20;10.77;;;3.70;99.90;;;;;;4996935;28;20192;-67
2022/01/29 06:54:22;;;;;;;22.10;12.37;;;3.70;99.90;;;;;;4994923;28;20279;-67
2022/01/29 06:56:48;;;;;;;16.87;10.93;;;3.70;99.90;;;;;;4984327;28;20199;-67
2022/01/29 06:59:14;;;;;;;19.43;11.53;;;3.70;99.90;;;;;;4996339;28;20189;-68
2022/01/29 07:01:39;;;;;;;20.50;11.87;;;3.80;99.90;;;;;;4985395;28;20685;-67
2022/01/29 07:04:05;;;;;;;18.63;11.37;;;3.80;99.90;;;;;;4991034;28;20212;-66
2022/01/29 07:06:30;;;;;;;18.03;11.30;;;3.70;99.90;;;;;;4995857;28;20781;-67
2022/01/29 07:08:57;;;;;;;17.00;11.83;;;3.80;99.90;;;;;;4989916;28;20245;-67
2022/01/29 07:11:23;;;;;;;17.33;11.40;;;3.80;99.90;;;;;;4999172;28;20567;-68
2022/01/29 07:14:00;;;;;;;22.20;11.33;;;3.80;99.90;;;;;;4988472;28;20206;-69
2022/01/29 07:16:25;;;;;;;21.37;12.03;;;3.80;99.90;;;;;;4989999;28;20271;-68
2022/01/29 07:18:51;;;;;;;21.00;12.67;;;3.90;99.90;;;;;;4990213;28;20294;-68
2022/01/29 07:21:16;;;;;;;16.13;11.53;;;3.80;99.90;;;;;;4998573;28;20200;-67
2022/01/29 07:23:41;;;;;;;25.00;12.57;;;3.80;99.90;;;;;;4985683;28;20729;-67
2022/01/29 07:26:07;;;;;;;19.67;11.97;;;3.80;99.90;;;;;;4994567;28;20263;-67
2022/01/29 07:28:32;;;;;;;21.80;11.57;;;3.80;99.90;;;;;;4982406;28;20207;-69
2022/01/29 07:30:58;;;;;;;21.40;12.10;;;3.80;99.90;;;;;;4989763;28;20184;-69
2022/01/29 07:33:23;;;;;;;18.17;12.60;;;3.90;99.90;;;;;;4984499;28;20634;-68
2022/01/29 07:35:49;;;;;;;20.90;12.87;;;3.90;99.90;;;;;;4998148;28;20212;-68
2022/01/29 07:38:15;;;;;;;17.60;11.60;;;3.90;99.90;;;;;;4984397;28;20203;-67
2022/01/29 07:40:40;;;;;;;19.47;12.70;;;3.90;99.90;;;;;;4982931;28;20252;-66
2022/01/29 07:43:06;;;;;;;18.10;12.73;;;4.00;99.90;;;;;;4974662;28;20247;-68
2022/01/29 07:45:31;;;;;;;25.90;12.90;;;4.00;99.90;;;;;;4994935;28;20195;-68
2022/01/29 07:47:57;;;;;;;17.07;12.37;;;4.00;99.90;;;;;;4986454;28;20943;-69
2022/01/29 07:50:22;;;;;;;17.93;13.97;;;4.00;99.90;;;;;;4987394;28;20279;-65
2022/01/29 07:52:48;;;;;;;17.43;12.77;;;4.00;99.90;;;;;;4997961;28;20203;-69
2022/01/29 07:55:13;;;;;;;17.07;12.37;;;4.00;99.90;;;;;;5001817;28;20192;-67
2022/01/29 07:57:39;;;;;;;18.07;13.10;;;4.00;99.90;;;;;;4981352;28;20209;-69
2022/01/29 08:00:05;;;;;;;20.67;12.27;;;4.00;99.90;;;;;;4993685;28;20184;-69
2022/01/29 08:02:31;;;;;;;21.57;13.33;;;4.10;99.90;;;;;;4989906;28;20216;-69
2022/01/29 08:04:56;;;;;;;18.70;12.13;;;4.10;99.90;;;;;;4994564;28;20677;-72
2022/01/29 08:07:22;;;;;;;19.53;12.17;;;4.10;99.90;;;;;;4990098;28;20201;-70
2022/01/29 08:09:47;;;;;;;21.23;14.47;;;4.10;99.90;;;;;;4990991;28;20199;-70
2022/01/29 08:12:13;;;;;;;20.37;12.47;;;4.10;99.90;;;;;;4980810;28;20287;-69
2022/01/29 08:14:38;;;;;;;18.40;12.43;;;4.10;99.90;;;;;;4992787;28;20192;-70
2022/01/29 08:17:04;;;;;;;18.10;13.33;;;4.10;99.90;;;;;;4996422;28;20312;-69
2022/01/29 08:19:29;;;;;;;19.57;13.90;;;4.10;99.90;;;;;;4986132;28;20219;-69
2022/01/29 08:21:55;;;;;;;17.43;12.43;;;4.20;99.90;;;;;;4999947;28;20200;-68
2022/01/29 08:24:20;;;;;;;22.60;13.20;;;4.20;99.90;;;;;;4989155;28;20220;-69
2022/01/29 08:26:45;;;;;;;16.27;12.47;;;4.20;99.90;;;;;;4992133;28;20257;-68
2022/01/29 08:29:11;;;;;;;19.97;13.77;;;4.30;99.90;;;;;;5000659;28;20195;-68
2022/01/29 08:31:36;;;;;;;14.20;11.33;;;4.30;99.90;;;;;;4990777;28;20210;-68
2022/01/29 08:34:02;;;;;;;18.77;13.00;;;4.30;99.90;;;;;;4992713;28;20967;-68
2022/01/29 08:36:27;;;;;;;14.17;12.30;;;4.30;99.90;;;;;;4989556;28;20318;-68
2022/01/29 08:38:53;;;;;;;16.47;12.63;;;4.30;99.90;;;;;;4993719;28;20291;-68
2022/01/29 08:41:18;;;;;;;20.00;14.17;;;4.30;99.90;;;;;;4988190;28;20219;-68
2022/01/29 08:43:44;;;;;;;20.73;15.73;;;4.40;99.90;;;;;;4993848;28;20700;-68
2022/01/29 08:46:10;;;;;;;20.73;13.43;;;4.30;99.90;;;;;;4976350;28;20255;-68
2022/01/29 08:48:35;;;;;;;24.30;14.53;;;4.40;99.90;;;;;;4994092;28;20187;-68
2022/01/29 08:51:01;;;;;;;20.30;13.73;;;4.50;99.90;;;;;;4985068;28;20679;-68
2022/01/29 08:53:26;;;;;;;19.27;13.73;;;4.50;99.90;;;;;;4992760;28;20219;-68
2022/01/29 08:55:52;;;;;;;19.90;14.30;;;4.40;99.90;;;;;;4992477;28;20601;-68
2022/01/29 08:58:17;;;;;;;22.53;15.30;;;4.40;99.90;;;;;;4994309;28;20215;-68
2022/01/29 09:00:45;;;;;;;21.10;14.67;;;4.50;99.90;;;;;;4979278;28;20207;-68
2022/01/29 09:03:13;;;;;;;18.73;14.97;;;4.50;99.90;;;;;;4991198;28;20285;-69
2022/01/29 09:05:38;;;;;;;20.77;13.83;;;4.50;99.90;;;;;;4991629;28;20196;-69
2022/01/29 09:08:04;;;;;;;20.20;14.27;;;4.70;99.90;;;;;;4992716;28;20197;-68
2022/01/29 09:10:31;;;;;;;24.87;14.87;;;4.60;99.90;;;;;;4997777;28;20314;-69
2022/01/29 09:12:56;;;;;;;19.67;14.23;;;4.70;99.90;;;;;;4991720;28;20212;-68
2022/01/29 09:15:22;;;;;;;21.63;15.93;;;4.80;99.90;;;;;;4994441;28;20188;-67
2022/01/29 09:17:47;;;;;;;20.63;14.67;;;4.80;99.90;;;;;;4986244;28;20212;-68
2022/01/29 09:20:15;;;;;;;19.70;15.47;;;4.80;99.90;;;;;;4995590;28;20688;-68
2022/01/29 09:22:41;;;;;;;20.07;14.40;;;4.90;99.90;;;;;;4980403;28;20264;-67
2022/01/29 09:25:06;;;;;;;20.90;15.30;;;4.80;99.90;;;;;;4995357;28;20228;-67
2022/01/29 09:27:32;;;;;;;29.23;16.83;;;4.90;99.90;;;;;;4988730;28;20576;-67
2022/01/29 09:29:58;;;;;;;18.20;12.73;;;4.90;99.90;;;;;;4997621;28;20268;-67
2022/01/29 09:32:24;;;;;;;23.07;14.97;;;5.00;99.90;;;;;;4985113;28;20242;-68
2022/01/29 09:34:50;;;;;;;21.00;15.53;;;4.90;99.90;;;;;;4994246;28;20671;-69
2022/01/29 09:37:15;;;;;;;21.07;15.73;;;5.00;99.90;;;;;;4985957;28;20204;-68
2022/01/29 09:39:42;;;;;;;22.20;15.03;;;4.90;99.90;;;;;;4998743;28;20562;-68
2022/01/29 09:42:09;;;;;;;25.03;17.87;;;5.00;99.90;;;;;;4987217;28;20236;-68
2022/01/29 09:44:35;;;;;;;31.53;18.43;;;5.00;99.90;;;;;;4993241;28;20231;-66
2022/01/29 09:47:03;;;;;;;28.33;18.50;;;5.00;99.90;;;;;;4992463;28;20200;-68
2022/01/29 09:49:33;;;;;;;29.40;20.17;;;5.10;99.90;;;;;;4992948;28;20188;-67
2022/01/29 09:51:59;;;;;;;31.13;18.87;;;5.10;99.90;;;;;;4986848;28;20212;-67
2022/01/29 09:54:24;;;;;;;30.20;18.77;;;5.20;99.90;;;;;;4996464;28;20557;-67
2022/01/29 09:56:50;;;;;;;33.63;19.13;;;5.20;99.90;;;;;;4991034;28;20685;-68
2022/01/29 09:59:15;;;;;;;26.73;18.57;;;5.20;99.90;;;;;;4987550;28;20192;-67
2022/01/29 10:01:41;;;;;;;27.20;17.97;;;5.30;99.90;;;;;;4990414;28;20200;-67
2022/01/29 10:04:06;;;;;;;30.00;20.47;;;5.30;99.90;;;;;;4996505;28;20286;-71
2022/01/29 10:06:34;;;;;;;31.67;21.03;;;5.30;99.90;;;;;;4991385;28;20192;-68
2022/01/29 10:09:01;;;;;;;32.30;20.53;;;5.40;99.90;;;;;;4990674;28;20909;-68
2022/01/29 10:11:27;;;;;;;29.03;20.20;;;5.40;99.90;;;;;;4994942;28;20196;-68
2022/01/29 10:13:58;;;;;;;35.17;22.23;;;5.40;99.90;;;;;;4987678;28;20189;-67
2022/01/29 10:16:26;;;;;;;33.47;23.63;;;5.40;99.90;;;;;;4982457;28;20253;-67
2022/01/29 10:19:06;;;;;;;38.93;22.53;;;5.50;99.90;;;;;;4981451;28;20650;-67
2022/01/29 10:21:52;;;;;;;31.57;20.77;;;5.50;99.90;;;;;;4981112;28;20232;-68
2022/01/29 10:24:21;;;;;;;33.77;21.70;;;5.60;99.90;;;;;;4982335;28;20282;-65
2022/01/29 10:26:51;;;;;;;31.53;20.93;;;5.60;99.90;;;;;;4981370;28;20330;-67
2022/01/29 10:29:22;;;;;;;35.03;22.47;;;5.60;99.90;;;;;;4981494;28;20703;-66
2022/01/29 10:31:56;;;;;;;32.80;21.67;;;5.70;99.90;;;;;;4981557;28;20205;-67
2022/01/29 10:34:24;;;;;;;31.80;21.77;;;5.70;99.90;;;;;;4977235;28;20208;-66
2022/01/29 10:37:16;;;;;;;30.67;19.37;;;5.80;99.90;;;;;;4990069;28;20873;-67
2022/01/29 10:39:44;;;;;;;30.90;20.87;;;5.80;99.90;;;;;;4979577;28;20201;-67
2022/01/29 10:42:47;;;;;;;31.23;20.87;;;5.80;99.90;;;;;;4983056;28;20313;-67
2022/01/29 10:45:13;;;;;;;30.20;19.83;;;5.80;99.90;;;;;;4977077;28;20195;-67
2022/01/29 10:47:56;;;;;;;35.63;22.73;;;5.90;99.90;;;;;;4983246;28;20201;-65
2022/01/29 10:50:22;;;;;;;29.87;20.93;;;6.00;99.90;;;;;;4994917;28;20196;-66
2022/01/29 10:52:48;;;;;;;29.83;21.47;;;6.10;99.90;;;;;;4994872;28;20231;-68
2022/01/29 10:55:14;;;;;;;31.00;20.23;;;6.20;99.90;;;;;;4989595;28;20224;-71
2022/01/29 10:57:42;;;;;;;32.63;23.23;;;6.30;99.90;;;;;;4981932;28;20631;-66
2022/01/29 11:00:21;;;;;;;30.90;20.93;;;6.40;99.90;;;;;;5001011;28;20624;-68
2022/01/29 11:02:47;;;;;;;33.50;20.13;;;6.50;99.90;;;;;;4988136;28;20685;-69
2022/01/29 11:05:14;;;;;;;29.80;20.07;;;6.50;99.90;;;;;;4993922;28;20196;-68
2022/01/29 11:07:41;;;;;;;26.40;17.80;;;6.50;99.90;;;;;;4980814;28;20422;-67
2022/01/29 11:10:08;;;;;;;29.87;18.93;;;6.60;99.90;;;;;;4981355;28;20195;-66
2022/01/29 11:12:36;;;;;;;26.80;18.53;;;6.70;99.90;;;;;;4977046;28;20205;-67
2022/01/29 11:15:02;;;;;;;28.80;19.30;;;6.70;99.90;;;;;;4981578;28;20204;-68
2022/01/29 11:17:29;;;;;;;22.87;18.17;;;6.90;99.90;;;;;;4984855;28;20547;-67
2022/01/29 11:19:56;;;;;;;21.17;17.13;;;6.90;99.90;;;;;;4987808;28;20189;-67
2022/01/29 11:22:31;;;;;;;21.67;16.53;;;7.00;99.90;;;;;;4977283;28;20239;-67
2022/01/29 11:25:00;;;;;;;23.53;16.40;;;7.00;99.90;;;;;;4979846;28;20271;-67
2022/01/29 11:27:31;;;;;;;22.30;15.20;;;7.10;99.90;;;;;;4981330;28;20236;-67
2022/01/29 11:30:19;;;;;;;25.27;16.30;;;7.10;99.90;;;;;;4998854;28;20662;-67
2022/01/29 11:32:46;;;;;;;19.93;15.20;;;7.20;99.90;;;;;;5003938;28;20205;-67
2022/01/29 11:35:16;;;;;;;20.07;15.33;;;7.30;99.90;;;;;;5000525;28;20618;-66
2022/01/29 11:37:48;;;;;;;21.37;14.93;;;7.30;99.90;;;;;;4986259;28;20676;-66
2022/01/29 11:40:17;;;;;;;14.33;12.80;;;7.30;99.90;;;;;;4988699;28;20213;-66
2022/01/29 11:43:06;;;;;;;19.97;14.43;;;7.30;99.90;;;;;;4975467;28;20222;-66
2022/01/29 11:45:45;;;;;;;18.23;14.23;;;7.40;99.90;;;;;;4984544;28;20219;-66
2022/01/29 11:50:56;;;;;;;18.57;13.77;;;7.40;99.90;;;;;;4984494;28;20754;-73
2022/01/29 11:53:22;;;;;;;15.60;12.37;;;7.30;99.90;;;;;;4998169;28;20214;-75
2022/01/29 11:55:53;;;;;;;14.63;11.27;;;7.30;99.90;;;;;;4985620;28;20999;-76
2022/01/29 11:58:28;;;;;;;18.90;13.33;;;7.20;99.90;;;;;;4997884;28;20204;-74
2022/01/29 12:00:55;;;;;;;17.17;12.43;;;7.20;99.90;;;;;;4986233;28;20289;-74
2022/01/29 12:03:36;;;;;;;16.97;13.90;;;7.20;99.90;;;;;;4997880;28;20208;-76
2022/01/29 12:08:41;;;;;;;22.40;17.27;;;7.10;99.90;;;;;;4988617;28;20205;-76
2022/01/29 12:11:10;;;;;;;16.50;12.07;;;7.20;99.90;;;;;;4984100;28;20638;-76
2022/01/29 12:13:36;;;;;;;12.77;11.37;;;7.20;99.90;;;;;;4989244;28;20326;-76
2022/01/29 12:16:05;;;;;;;16.53;12.10;;;7.30;99.90;;;;;;4989170;28;20429;-75
2022/01/29 12:18:33;;;;;;;13.30;11.10;;;7.30;99.90;;;;;;4992185;28;20328;-76
2022/01/29 12:21:00;;;;;;;16.13;11.70;;;7.40;99.90;;;;;;4996726;28;20201;-75
2022/01/29 12:23:26;;;;;;;14.80;10.00;;;7.40;99.90;;;;;;4985774;28;20926;-75
2022/01/29 12:25:58;;;;;;;14.97;11.20;;;7.40;99.90;;;;;;4997817;28;20193;-75
2022/01/29 12:28:25;;;;;;;11.33;10.00;;;7.40;99.90;;;;;;4993386;28;20185;-76
2022/01/29 12:30:52;;;;;;;15.97;10.60;;;7.40;99.90;;;;;;4987402;28;20195;-76
2022/01/29 12:33:23;;;;;;;10.43;9.33;;;7.40;99.90;;;;;;4997743;28;20212;-75
2022/01/29 12:35:59;;;;;;;13.60;9.80;;;7.50;99.90;;;;;;5041445;28;20224;-75
2022/01/29 12:38:40;;;;;;;12.23;9.67;;;7.50;99.90;;;;;;4989019;28;20685;-74
2022/01/29 12:41:29;;;;;;;12.50;10.30;;;7.50;99.90;;;;;;4980707;28;20229;-75
2022/01/29 12:44:00;;;;;;;11.37;9.57;;;7.50;99.90;;;;;;4967580;28;20300;-73
2022/01/29 12:46:28;;;;;;;12.07;8.63;;;7.50;99.90;;;;;;4976956;28;20193;-76
2022/01/29 12:49:02;;;;;;;13.63;8.10;;;7.60;99.90;;;;;;4980448;28;20265;-75
2022/01/29 12:51:29;;;;;;;12.23;8.30;;;7.60;99.90;;;;;;4977441;28;20186;-76
2022/01/29 12:54:00;;;;;;;12.30;10.07;;;7.70;99.90;;;;;;4979423;28;20226;-80
2022/01/29 12:56:31;;;;;;;10.83;9.27;;;7.80;99.90;;;;;;4982036;28;20189;-74
2022/01/29 12:58:56;;;;;;;12.00;8.50;;;7.80;99.90;;;;;;4975879;28;20226;-78
2022/01/29 13:01:24;;;;;;;11.30;8.90;;;7.80;99.90;;;;;;4985564;28;20197;-77
2022/01/29 13:03:50;;;;;;;10.33;7.23;;;7.90;99.90;;;;;;4978142;28;20368;-76